KASTKONP

Guest
Details From KAST - Astoria Rgnl
To KONP - Newport Muni
Flight Number -
Tags generated
Created
Modified
Stats Distance 96 nm / 177 km
Max Altitude 0 ft / 0 m
Waypoints 3
Social Downloads 1
Likes 0
Share VATSIM

Download

Looking for another format? Having issues loading an existing format? Contact us
Advertisement - Login to hide

Notes

Basic altitude profile: - Ascent Rate: 2500ft/min - Ascent Speed: 250kts - Cruise Altitude: 35000ft - Cruise Speed: 420kts - Descent Rate: 1500ft/min - Descent Speed: 250kts Options: - Use NATs: yes - Use PACOTS: yes - Use low airways: no - Use high airways: yes

Route

KAST ONP KONP

ID Type Via Altitude Latitude Longitude Leg Dist Tot Dist Heading (true) Name
O KAST APT - 0 ft / 0 m 46.15789˚ -123.87872˚ - 0 nm - Astoria Rgnl
ONP VOR - 0 ft / 0 m 44.57536˚ -124.06058˚ 95 nm 95 nm 185° / 185° NEWPORT VORTAC
O KONP APT - 0 ft / 0 m 44.58078˚ -124.05750˚ 0 nm 95 nm 22° / 22° Newport Muni

Altitude Profile

Advertisement - Login to hide

KAST

Details ICAO KAST (AST)
Name Astoria Rgnl
Region United States
Timezone America/Los_Angeles (UTC-8.0)
Stats Elevation 15 ft / 5 m (AMSL)
Location 46.157894° -123.878724°
Runways 2
Magnetic Variation 15.636° E

METAR

KAST 131655Z AUTO 10005KT 9SM -SN CLR 04/01 A3036 RMK AO2 SNB45 SLP279 P0000 T00390011

Decode

TAF

KAST 131139Z 1312/1412 06003KT P6SM SCT250

Decode

Departure Runways

ID Width Length Bearing (true) Bearing (mag) Surface Threshold Offset Overrun Length
08 98 ft / 30 m 5,779 ft / 1,762 m 95.49° 79.85° Asphalt 302 ft / 92 m 0 ft / 0 m
13 98 ft / 30 m 4,997 ft / 1,523 m 153.70° 138.06° Asphalt 328 ft / 100 m 0 ft / 0 m
26 98 ft / 30 m 5,779 ft / 1,762 m 275.51° 259.87° Asphalt 705 ft / 215 m 0 ft / 0 m
31 98 ft / 30 m 4,997 ft / 1,523 m 333.70° 318.06° Asphalt 203 ft / 62 m 0 ft / 0 m

KONP

Details ICAO KONP
Name Newport Muni
Region United States
Timezone America/Los_Angeles (UTC-8.0)
Stats Elevation 160 ft / 49 m (AMSL)
Location 44.580776° -124.057500°
Runways 2
Magnetic Variation 15.287° E

METAR

KONP 131715Z AUTO 08013G19KT 10SM CLR 08/M01 A3033 RMK AO2

Decode

TAF

KONP 131139Z 1312/1412 08012KT P6SM SCT250

Decode

Destination Runways

ID Width Length Bearing (true) Bearing (mag) Surface Threshold Offset Overrun Length
02 75 ft / 23 m 3,041 ft / 927 m 37.34° 22.05° Asphalt 0 ft / 0 m 0 ft / 0 m
16 151 ft / 46 m 5,438 ft / 1,657 m 177.36° 162.07° Asphalt 0 ft / 0 m 0 ft / 0 m
20 75 ft / 23 m 3,041 ft / 927 m 217.35° 202.06° Asphalt 0 ft / 0 m 400 ft / 122 m
34 151 ft / 46 m 5,438 ft / 1,657 m 357.36° 342.07° Asphalt 299 ft / 91 m 0 ft / 0 m

Approach Navaids

Runway Type Ident Frequency Range Bearing (true) Bearing (mag) Slope Elevation
16 Localiser IONP 111.50 MHz 18 nm / 33 km 177.38° 162.09° - 160 ft / 49 m (AMSL)
16 Glidescope IONP 111.50 MHz 10 nm / 19 km 177.36° 162.07° 3.00° 138 ft / 42 m (AMSL)

Popular Alternatives